sensor_id;sensor_type;location;lat;lon;timestamp;temperature;humidity
54202;DHT22;40108;53.152;5.844;2023-12-28T00:01:22;9.10;93.90
54202;DHT22;40108;53.152;5.844;2023-12-28T00:03:48;9.20;93.90
54202;DHT22;40108;53.152;5.844;2023-12-28T00:06:14;9.20;94.00
54202;DHT22;40108;53.152;5.844;2023-12-28T00:08:40;9.20;94.10
54202;DHT22;40108;53.152;5.844;2023-12-28T00:11:06;9.30;94.20
54202;DHT22;40108;53.152;5.844;2023-12-28T00:13:32;9.30;94.20
54202;DHT22;40108;53.152;5.844;2023-12-28T00:15:58;9.40;94.30
54202;DHT22;40108;53.152;5.844;2023-12-28T00:18:24;9.50;94.30
54202;DHT22;40108;53.152;5.844;2023-12-28T00:20:50;9.50;94.40
54202;DHT22;40108;53.152;5.844;2023-12-28T00:23:16;9.50;94.30
54202;DHT22;40108;53.152;5.844;2023-12-28T00:25:41;9.60;94.30
54202;DHT22;40108;53.152;5.844;2023-12-28T00:28:07;9.60;94.30
54202;DHT22;40108;53.152;5.844;2023-12-28T00:30:33;9.60;94.20
54202;DHT22;40108;53.152;5.844;2023-12-28T00:32:59;9.60;94.20
54202;DHT22;40108;53.152;5.844;2023-12-28T00:35:25;9.60;94.10
54202;DHT22;40108;53.152;5.844;2023-12-28T00:37:50;9.60;94.10
54202;DHT22;40108;53.152;5.844;2023-12-28T00:40:16;9.60;94.10
54202;DHT22;40108;53.152;5.844;2023-12-28T00:42:42;9.60;94.00
54202;DHT22;40108;53.152;5.844;2023-12-28T00:45:08;9.60;94.00
54202;DHT22;40108;53.152;5.844;2023-12-28T00:47:37;9.60;94.00
54202;DHT22;40108;53.152;5.844;2023-12-28T00:50:03;9.50;94.00
54202;DHT22;40108;53.152;5.844;2023-12-28T00:52:29;9.50;93.90
54202;DHT22;40108;53.152;5.844;2023-12-28T00:54:54;9.40;93.80
54202;DHT22;40108;53.152;5.844;2023-12-28T00:57:20;9.50;93.80
54202;DHT22;40108;53.152;5.844;2023-12-28T00:59:46;9.40;93.80
54202;DHT22;40108;53.152;5.844;2023-12-28T01:02:12;9.40;93.80
54202;DHT22;40108;53.152;5.844;2023-12-28T01:04:37;9.40;93.70
54202;DHT22;40108;53.152;5.844;2023-12-28T01:07:03;9.30;93.70
54202;DHT22;40108;53.152;5.844;2023-12-28T01:09:31;9.40;93.60
54202;DHT22;40108;53.152;5.844;2023-12-28T01:12:00;9.30;93.50
54202;DHT22;40108;53.152;5.844;2023-12-28T01:14:26;9.30;93.50
54202;DHT22;40108;53.152;5.844;2023-12-28T01:16:52;9.30;93.50
54202;DHT22;40108;53.152;5.844;2023-12-28T01:19:17;9.30;93.50
54202;DHT22;40108;53.152;5.844;2023-12-28T01:21:43;9.30;93.40
54202;DHT22;40108;53.152;5.844;2023-12-28T01:24:09;9.30;93.40
54202;DHT22;40108;53.152;5.844;2023-12-28T01:26:34;9.30;93.50
54202;DHT22;40108;53.152;5.844;2023-12-28T01:29:00;9.30;93.50
54202;DHT22;40108;53.152;5.844;2023-12-28T01:31:29;9.40;93.60
54202;DHT22;40108;53.152;5.844;2023-12-28T01:33:55;9.40;93.70
54202;DHT22;40108;53.152;5.844;2023-12-28T01:36:22;9.40;93.70
54202;DHT22;40108;53.152;5.844;2023-12-28T01:38:51;9.40;93.70
54202;DHT22;40108;53.152;5.844;2023-12-28T01:41:17;9.50;93.70
54202;DHT22;40108;53.152;5.844;2023-12-28T01:43:43;9.40;93.70
54202;DHT22;40108;53.152;5.844;2023-12-28T01:46:16;9.50;93.60
54202;DHT22;40108;53.152;5.844;2023-12-28T01:48:44;9.50;93.60
54202;DHT22;40108;53.152;5.844;2023-12-28T01:51:13;9.60;93.60
54202;DHT22;40108;53.152;5.844;2023-12-28T01:53:39;9.60;93.60
54202;DHT22;40108;53.152;5.844;2023-12-28T01:56:06;9.50;93.60
54202;DHT22;40108;53.152;5.844;2023-12-28T01:58:33;9.60;93.60
54202;DHT22;40108;53.152;5.844;2023-12-28T02:01:01;9.60;93.60
54202;DHT22;40108;53.152;5.844;2023-12-28T02:03:27;9.50;93.50
54202;DHT22;40108;53.152;5.844;2023-12-28T02:05:54;9.60;93.50
54202;DHT22;40108;53.152;5.844;2023-12-28T02:08:20;9.60;93.50
54202;DHT22;40108;53.152;5.844;2023-12-28T02:10:46;9.60;93.40
54202;DHT22;40108;53.152;5.844;2023-12-28T02:13:12;9.60;93.30
54202;DHT22;40108;53.152;5.844;2023-12-28T02:15:38;9.60;93.20
54202;DHT22;40108;53.152;5.844;2023-12-28T02:18:11;9.60;93.20
54202;DHT22;40108;53.152;5.844;2023-12-28T02:20:40;9.60;93.10
54202;DHT22;40108;53.152;5.844;2023-12-28T02:23:06;9.60;93.00
54202;DHT22;40108;53.152;5.844;2023-12-28T02:25:33;9.60;92.90
54202;DHT22;40108;53.152;5.844;2023-12-28T02:27:59;9.60;92.80
54202;DHT22;40108;53.152;5.844;2023-12-28T02:30:25;9.60;92.70
54202;DHT22;40108;53.152;5.844;2023-12-28T02:33:14;9.70;92.50
54202;DHT22;40108;53.152;5.844;2023-12-28T02:35:51;9.70;92.40
54202;DHT22;40108;53.152;5.844;2023-12-28T02:38:18;9.80;92.40
54202;DHT22;40108;53.152;5.844;2023-12-28T02:40:44;9.80;92.30
54202;DHT22;40108;53.152;5.844;2023-12-28T02:43:11;9.80;92.20
54202;DHT22;40108;53.152;5.844;2023-12-28T02:45:38;9.80;92.20
54202;DHT22;40108;53.152;5.844;2023-12-28T02:48:05;9.80;92.00
54202;DHT22;40108;53.152;5.844;2023-12-28T02:50:31;9.80;92.00
54202;DHT22;40108;53.152;5.844;2023-12-28T02:52:58;9.70;91.90
54202;DHT22;40108;53.152;5.844;2023-12-28T02:55:24;9.70;92.10
54202;DHT22;40108;53.152;5.844;2023-12-28T02:57:51;9.60;92.30
54202;DHT22;40108;53.152;5.844;2023-12-28T03:00:17;9.60;92.40
54202;DHT22;40108;53.152;5.844;2023-12-28T03:02:43;9.50;92.50
54202;DHT22;40108;53.152;5.844;2023-12-28T03:05:09;9.50;92.60
54202;DHT22;40108;53.152;5.844;2023-12-28T03:07:35;9.50;92.60
54202;DHT22;40108;53.152;5.844;2023-12-28T03:10:03;9.50;92.50
54202;DHT22;40108;53.152;5.844;2023-12-28T03:12:30;9.60;92.30
54202;DHT22;40108;53.152;5.844;2023-12-28T03:14:56;9.60;92.10
54202;DHT22;40108;53.152;5.844;2023-12-28T03:17:24;9.60;91.90
54202;DHT22;40108;53.152;5.844;2023-12-28T03:19:50;9.60;91.70
54202;DHT22;40108;53.152;5.844;2023-12-28T03:22:16;9.60;91.60
54202;DHT22;40108;53.152;5.844;2023-12-28T03:24:43;9.70;91.30
54202;DHT22;40108;53.152;5.844;2023-12-28T03:27:09;9.70;91.00
54202;DHT22;40108;53.152;5.844;2023-12-28T03:29:37;9.70;90.90
54202;DHT22;40108;53.152;5.844;2023-12-28T03:32:03;9.80;90.80
54202;DHT22;40108;53.152;5.844;2023-12-28T03:34:29;9.70;90.70
54202;DHT22;40108;53.152;5.844;2023-12-28T03:36:58;9.80;90.50
54202;DHT22;40108;53.152;5.844;2023-12-28T03:39:24;9.80;90.40
54202;DHT22;40108;53.152;5.844;2023-12-28T03:41:50;9.80;90.40
54202;DHT22;40108;53.152;5.844;2023-12-28T03:44:15;9.80;90.30
54202;DHT22;40108;53.152;5.844;2023-12-28T03:46:41;9.80;90.30
54202;DHT22;40108;53.152;5.844;2023-12-28T03:49:07;9.80;90.40
54202;DHT22;40108;53.152;5.844;2023-12-28T03:51:33;9.90;90.20
54202;DHT22;40108;53.152;5.844;2023-12-28T03:53:58;9.90;90.10
54202;DHT22;40108;53.152;5.844;2023-12-28T03:56:25;9.90;90.10
54202;DHT22;40108;53.152;5.844;2023-12-28T03:58:54;9.90;89.90
54202;DHT22;40108;53.152;5.844;2023-12-28T04:01:21;9.90;90.00
54202;DHT22;40108;53.152;5.844;2023-12-28T04:03:48;9.90;90.00
54202;DHT22;40108;53.152;5.844;2023-12-28T04:06:14;9.90;90.00
54202;DHT22;40108;53.152;5.844;2023-12-28T04:08:41;9.90;90.10
54202;DHT22;40108;53.152;5.844;2023-12-28T04:11:07;9.90;90.10
54202;DHT22;40108;53.152;5.844;2023-12-28T04:13:33;9.90;90.20
54202;DHT22;40108;53.152;5.844;2023-12-28T04:15:59;9.90;89.80
54202;DHT22;40108;53.152;5.844;2023-12-28T04:18:25;9.90;89.90
54202;DHT22;40108;53.152;5.844;2023-12-28T04:20:51;10.00;89.80
54202;DHT22;40108;53.152;5.844;2023-12-28T04:23:16;10.00;89.70
54202;DHT22;40108;53.152;5.844;2023-12-28T04:25:42;10.00;89.80
54202;DHT22;40108;53.152;5.844;2023-12-28T04:28:08;10.00;89.70
54202;DHT22;40108;53.152;5.844;2023-12-28T04:30:34;10.10;89.40
54202;DHT22;40108;53.152;5.844;2023-12-28T04:33:01;10.10;89.10
54202;DHT22;40108;53.152;5.844;2023-12-28T04:35:26;10.20;88.90
54202;DHT22;40108;53.152;5.844;2023-12-28T04:37:52;10.10;89.00
54202;DHT22;40108;53.152;5.844;2023-12-28T04:40:18;10.10;89.00
54202;DHT22;40108;53.152;5.844;2023-12-28T04:42:44;10.10;89.10
54202;DHT22;40108;53.152;5.844;2023-12-28T04:45:10;10.10;89.10
54202;DHT22;40108;53.152;5.844;2023-12-28T04:47:36;10.20;88.90
54202;DHT22;40108;53.152;5.844;2023-12-28T04:50:06;10.10;88.80
54202;DHT22;40108;53.152;5.844;2023-12-28T04:52:32;10.10;88.80
54202;DHT22;40108;53.152;5.844;2023-12-28T04:54:58;10.20;88.80
54202;DHT22;40108;53.152;5.844;2023-12-28T04:57:26;10.10;89.00
54202;DHT22;40108;53.152;5.844;2023-12-28T04:59:53;10.20;88.90
54202;DHT22;40108;53.152;5.844;2023-12-28T05:02:19;10.20;88.80
54202;DHT22;40108;53.152;5.844;2023-12-28T05:04:45;10.20;89.00
54202;DHT22;40108;53.152;5.844;2023-12-28T05:07:10;10.20;89.10
54202;DHT22;40108;53.152;5.844;2023-12-28T05:09:36;10.30;88.80
54202;DHT22;40108;53.152;5.844;2023-12-28T05:12:02;10.30;88.50
54202;DHT22;40108;53.152;5.844;2023-12-28T05:14:28;10.40;88.50
54202;DHT22;40108;53.152;5.844;2023-12-28T05:16:54;10.30;88.50
54202;DHT22;40108;53.152;5.844;2023-12-28T05:19:20;10.30;88.50
54202;DHT22;40108;53.152;5.844;2023-12-28T05:21:45;10.40;88.50
54202;DHT22;40108;53.152;5.844;2023-12-28T05:24:12;10.40;88.50
54202;DHT22;40108;53.152;5.844;2023-12-28T05:26:38;10.40;88.30
54202;DHT22;40108;53.152;5.844;2023-12-28T05:29:04;10.40;88.20
54202;DHT22;40108;53.152;5.844;2023-12-28T05:31:29;10.50;88.10
54202;DHT22;40108;53.152;5.844;2023-12-28T05:33:55;10.40;88.10
54202;DHT22;40108;53.152;5.844;2023-12-28T05:36:22;10.40;88.20
54202;DHT22;40108;53.152;5.844;2023-12-28T05:38:48;10.40;88.40
54202;DHT22;40108;53.152;5.844;2023-12-28T05:41:14;10.40;88.40
54202;DHT22;40108;53.152;5.844;2023-12-28T05:43:39;10.40;88.20
54202;DHT22;40108;53.152;5.844;2023-12-28T05:46:05;10.40;88.20
54202;DHT22;40108;53.152;5.844;2023-12-28T05:48:31;10.40;88.20
54202;DHT22;40108;53.152;5.844;2023-12-28T05:50:57;10.40;88.40
54202;DHT22;40108;53.152;5.844;2023-12-28T05:53:24;10.40;88.40
54202;DHT22;40108;53.152;5.844;2023-12-28T05:55:50;10.40;88.50
54202;DHT22;40108;53.152;5.844;2023-12-28T05:58:16;10.40;88.40
54202;DHT22;40108;53.152;5.844;2023-12-28T06:00:42;10.50;88.30
54202;DHT22;40108;53.152;5.844;2023-12-28T06:03:08;10.40;88.40
54202;DHT22;40108;53.152;5.844;2023-12-28T06:05:34;10.40;88.30
54202;DHT22;40108;53.152;5.844;2023-12-28T06:08:00;10.50;88.20
54202;DHT22;40108;53.152;5.844;2023-12-28T06:10:25;10.50;88.10
54202;DHT22;40108;53.152;5.844;2023-12-28T06:12:51;10.50;88.10
54202;DHT22;40108;53.152;5.844;2023-12-28T06:15:17;10.50;88.00
54202;DHT22;40108;53.152;5.844;2023-12-28T06:17:43;10.50;88.00
54202;DHT22;40108;53.152;5.844;2023-12-28T06:20:09;10.50;88.00
54202;DHT22;40108;53.152;5.844;2023-12-28T06:22:38;10.50;88.20
54202;DHT22;40108;53.152;5.844;2023-12-28T06:25:04;10.50;88.10
54202;DHT22;40108;53.152;5.844;2023-12-28T06:27:30;10.50;88.00
54202;DHT22;40108;53.152;5.844;2023-12-28T06:29:56;10.40;88.00
54202;DHT22;40108;53.152;5.844;2023-12-28T06:32:22;10.40;88.00
54202;DHT22;40108;53.152;5.844;2023-12-28T06:34:48;10.40;88.10
54202;DHT22;40108;53.152;5.844;2023-12-28T06:37:14;10.40;88.10
54202;DHT22;40108;53.152;5.844;2023-12-28T06:39:40;10.50;88.10
54202;DHT22;40108;53.152;5.844;2023-12-28T06:42:06;10.50;88.20
54202;DHT22;40108;53.152;5.844;2023-12-28T06:44:32;10.50;88.10
54202;DHT22;40108;53.152;5.844;2023-12-28T06:46:58;10.60;88.00
54202;DHT22;40108;53.152;5.844;2023-12-28T06:49:27;10.60;87.80
54202;DHT22;40108;53.152;5.844;2023-12-28T06:51:52;10.60;87.90
54202;DHT22;40108;53.152;5.844;2023-12-28T06:54:18;10.60;87.80
54202;DHT22;40108;53.152;5.844;2023-12-28T06:56:44;10.60;87.90
54202;DHT22;40108;53.152;5.844;2023-12-28T06:59:09;10.60;87.70
54202;DHT22;40108;53.152;5.844;2023-12-28T07:01:41;10.70;87.60
54202;DHT22;40108;53.152;5.844;2023-12-28T07:04:07;10.60;87.60
54202;DHT22;40108;53.152;5.844;2023-12-28T07:06:32;10.60;87.70
54202;DHT22;40108;53.152;5.844;2023-12-28T07:08:58;10.60;87.70
54202;DHT22;40108;53.152;5.844;2023-12-28T07:11:24;10.60;87.80
54202;DHT22;40108;53.152;5.844;2023-12-28T07:13:52;10.60;88.00
54202;DHT22;40108;53.152;5.844;2023-12-28T07:16:17;10.50;88.10
54202;DHT22;40108;53.152;5.844;2023-12-28T07:18:43;10.50;88.10
54202;DHT22;40108;53.152;5.844;2023-12-28T07:21:09;10.50;88.20
54202;DHT22;40108;53.152;5.844;2023-12-28T07:23:35;10.50;88.30
54202;DHT22;40108;53.152;5.844;2023-12-28T07:26:02;10.50;88.50
54202;DHT22;40108;53.152;5.844;2023-12-28T07:28:28;10.50;88.50
54202;DHT22;40108;53.152;5.844;2023-12-28T07:30:54;10.50;88.60
54202;DHT22;40108;53.152;5.844;2023-12-28T07:33:20;10.50;88.70
54202;DHT22;40108;53.152;5.844;2023-12-28T07:35:46;10.50;88.80
54202;DHT22;40108;53.152;5.844;2023-12-28T07:38:12;10.50;88.90
54202;DHT22;40108;53.152;5.844;2023-12-28T07:40:38;10.50;88.90
54202;DHT22;40108;53.152;5.844;2023-12-28T07:43:04;10.60;88.90
54202;DHT22;40108;53.152;5.844;2023-12-28T07:45:30;10.60;89.00
54202;DHT22;40108;53.152;5.844;2023-12-28T07:48:07;10.50;89.00
54202;DHT22;40108;53.152;5.844;2023-12-28T07:50:33;10.50;89.10
54202;DHT22;40108;53.152;5.844;2023-12-28T07:52:58;10.50;89.20
54202;DHT22;40108;53.152;5.844;2023-12-28T07:55:24;10.50;89.20
54202;DHT22;40108;53.152;5.844;2023-12-28T07:57:51;10.60;89.20
54202;DHT22;40108;53.152;5.844;2023-12-28T08:00:17;10.60;89.20
54202;DHT22;40108;53.152;5.844;2023-12-28T08:02:43;10.60;89.20
54202;DHT22;40108;53.152;5.844;2023-12-28T08:05:09;10.60;89.10
54202;DHT22;40108;53.152;5.844;2023-12-28T08:07:34;10.60;89.10
54202;DHT22;40108;53.152;5.844;2023-12-28T08:10:01;10.60;89.20
54202;DHT22;40108;53.152;5.844;2023-12-28T08:12:26;10.60;89.30
54202;DHT22;40108;53.152;5.844;2023-12-28T08:14:54;10.60;89.20
54202;DHT22;40108;53.152;5.844;2023-12-28T08:17:19;10.60;89.30
54202;DHT22;40108;53.152;5.844;2023-12-28T08:19:45;10.50;89.20
54202;DHT22;40108;53.152;5.844;2023-12-28T08:22:11;10.60;89.20
54202;DHT22;40108;53.152;5.844;2023-12-28T08:24:37;10.60;89.10
54202;DHT22;40108;53.152;5.844;2023-12-28T08:27:03;10.70;88.80
54202;DHT22;40108;53.152;5.844;2023-12-28T08:29:29;10.70;88.80
54202;DHT22;40108;53.152;5.844;2023-12-28T08:31:54;10.70;88.80
54202;DHT22;40108;53.152;5.844;2023-12-28T08:34:21;10.60;88.80
54202;DHT22;40108;53.152;5.844;2023-12-28T08:36:47;10.70;88.70
54202;DHT22;40108;53.152;5.844;2023-12-28T08:39:13;10.70;88.60
54202;DHT22;40108;53.152;5.844;2023-12-28T08:41:39;10.70;88.60
54202;DHT22;40108;53.152;5.844;2023-12-28T08:44:04;10.60;88.70
54202;DHT22;40108;53.152;5.844;2023-12-28T08:46:30;10.60;88.60
54202;DHT22;40108;53.152;5.844;2023-12-28T08:48:56;10.60;88.80
54202;DHT22;40108;53.152;5.844;2023-12-28T08:51:22;10.60;88.90
54202;DHT22;40108;53.152;5.844;2023-12-28T08:53:48;10.60;89.00
54202;DHT22;40108;53.152;5.844;2023-12-28T08:56:17;10.60;89.00
54202;DHT22;40108;53.152;5.844;2023-12-28T08:58:44;10.70;89.10
54202;DHT22;40108;53.152;5.844;2023-12-28T09:01:17;10.60;89.10
54202;DHT22;40108;53.152;5.844;2023-12-28T09:03:44;10.60;89.20
54202;DHT22;40108;53.152;5.844;2023-12-28T09:06:10;10.60;89.20
54202;DHT22;40108;53.152;5.844;2023-12-28T09:08:36;10.60;89.20
54202;DHT22;40108;53.152;5.844;2023-12-28T09:11:02;10.70;89.20
54202;DHT22;40108;53.152;5.844;2023-12-28T09:13:27;10.70;89.10
54202;DHT22;40108;53.152;5.844;2023-12-28T09:15:53;10.70;89.00
54202;DHT22;40108;53.152;5.844;2023-12-28T09:18:19;10.70;89.10
54202;DHT22;40108;53.152;5.844;2023-12-28T09:20:45;10.70;89.20
54202;DHT22;40108;53.152;5.844;2023-12-28T09:23:10;10.70;89.10
54202;DHT22;40108;53.152;5.844;2023-12-28T09:25:36;10.70;89.20
54202;DHT22;40108;53.152;5.844;2023-12-28T09:28:04;10.70;89.00
54202;DHT22;40108;53.152;5.844;2023-12-28T09:30:30;10.70;89.00
54202;DHT22;40108;53.152;5.844;2023-12-28T09:32:56;10.70;88.90
54202;DHT22;40108;53.152;5.844;2023-12-28T09:35:22;10.80;88.80
54202;DHT22;40108;53.152;5.844;2023-12-28T09:37:50;10.70;88.70
54202;DHT22;40108;53.152;5.844;2023-12-28T09:40:16;10.80;88.60
54202;DHT22;40108;53.152;5.844;2023-12-28T09:43:02;10.80;88.70
54202;DHT22;40108;53.152;5.844;2023-12-28T09:45:29;10.80;88.70
54202;DHT22;40108;53.152;5.844;2023-12-28T09:47:55;10.70;88.70
54202;DHT22;40108;53.152;5.844;2023-12-28T09:50:21;10.80;88.60
54202;DHT22;40108;53.152;5.844;2023-12-28T09:52:49;10.80;88.70
54202;DHT22;40108;53.152;5.844;2023-12-28T09:55:15;10.90;88.70
54202;DHT22;40108;53.152;5.844;2023-12-28T09:57:41;10.80;88.50
54202;DHT22;40108;53.152;5.844;2023-12-28T10:00:08;10.80;88.50
54202;DHT22;40108;53.152;5.844;2023-12-28T10:02:35;10.90;88.30
54202;DHT22;40108;53.152;5.844;2023-12-28T10:05:02;10.90;88.20
54202;DHT22;40108;53.152;5.844;2023-12-28T10:07:27;10.90;88.00
54202;DHT22;40108;53.152;5.844;2023-12-28T10:09:53;10.90;88.00
54202;DHT22;40108;53.152;5.844;2023-12-28T10:12:19;10.90;87.90
54202;DHT22;40108;53.152;5.844;2023-12-28T10:14:45;10.90;87.90
54202;DHT22;40108;53.152;5.844;2023-12-28T10:17:11;10.90;88.00
54202;DHT22;40108;53.152;5.844;2023-12-28T10:19:37;10.90;88.10
54202;DHT22;40108;53.152;5.844;2023-12-28T10:22:04;10.90;88.10
54202;DHT22;40108;53.152;5.844;2023-12-28T10:24:30;10.90;88.10
54202;DHT22;40108;53.152;5.844;2023-12-28T10:26:56;10.90;88.20
54202;DHT22;40108;53.152;5.844;2023-12-28T10:29:24;10.90;88.20
54202;DHT22;40108;53.152;5.844;2023-12-28T10:31:50;10.90;88.30
54202;DHT22;40108;53.152;5.844;2023-12-28T10:34:18;10.90;88.30
54202;DHT22;40108;53.152;5.844;2023-12-28T10:36:45;10.90;88.30
54202;DHT22;40108;53.152;5.844;2023-12-28T10:39:16;10.90;88.20
54202;DHT22;40108;53.152;5.844;2023-12-28T10:41:45;10.90;88.00
54202;DHT22;40108;53.152;5.844;2023-12-28T10:44:16;10.90;88.10
54202;DHT22;40108;53.152;5.844;2023-12-28T10:46:44;10.90;88.10
54202;DHT22;40108;53.152;5.844;2023-12-28T10:49:11;10.90;88.10
54202;DHT22;40108;53.152;5.844;2023-12-28T10:51:41;10.90;88.10
54202;DHT22;40108;53.152;5.844;2023-12-28T10:56:46;11.00;88.10
54202;DHT22;40108;53.152;5.844;2023-12-28T10:59:29;11.00;87.80
54202;DHT22;40108;53.152;5.844;2023-12-28T11:02:01;11.00;87.80
54202;DHT22;40108;53.152;5.844;2023-12-28T11:04:42;11.00;87.80
54202;DHT22;40108;53.152;5.844;2023-12-28T11:07:10;11.00;87.60
54202;DHT22;40108;53.152;5.844;2023-12-28T11:09:41;11.00;87.70
54202;DHT22;40108;53.152;5.844;2023-12-28T11:12:08;11.00;87.50
54202;DHT22;40108;53.152;5.844;2023-12-28T11:14:38;11.10;87.60
54202;DHT22;40108;53.152;5.844;2023-12-28T11:17:04;11.10;87.80
54202;DHT22;40108;53.152;5.844;2023-12-28T11:19:34;11.10;87.80
54202;DHT22;40108;53.152;5.844;2023-12-28T11:22:02;11.10;87.80
54202;DHT22;40108;53.152;5.844;2023-12-28T11:24:29;11.00;87.90
54202;DHT22;40108;53.152;5.844;2023-12-28T11:26:56;11.10;87.90
54202;DHT22;40108;53.152;5.844;2023-12-28T11:29:23;11.10;87.80
54202;DHT22;40108;53.152;5.844;2023-12-28T11:31:57;11.10;87.80
54202;DHT22;40108;53.152;5.844;2023-12-28T11:34:30;11.10;87.70
54202;DHT22;40108;53.152;5.844;2023-12-28T11:36:58;11.10;87.60
54202;DHT22;40108;53.152;5.844;2023-12-28T11:39:32;11.10;87.40
54202;DHT22;40108;53.152;5.844;2023-12-28T11:42:09;11.10;87.30
54202;DHT22;40108;53.152;5.844;2023-12-28T11:44:39;11.10;87.40
54202;DHT22;40108;53.152;5.844;2023-12-28T11:47:13;11.10;87.30
54202;DHT22;40108;53.152;5.844;2023-12-28T11:49:40;11.10;87.20
54202;DHT22;40108;53.152;5.844;2023-12-28T11:52:07;11.00;87.20
54202;DHT22;40108;53.152;5.844;2023-12-28T11:54:33;11.00;87.10
54202;DHT22;40108;53.152;5.844;2023-12-28T11:56:59;11.00;87.30
54202;DHT22;40108;53.152;5.844;2023-12-28T11:59:24;11.00;87.30
54202;DHT22;40108;53.152;5.844;2023-12-28T12:01:51;11.00;87.30
54202;DHT22;40108;53.152;5.844;2023-12-28T12:04:18;11.00;87.20
54202;DHT22;40108;53.152;5.844;2023-12-28T12:06:45;11.00;87.30
54202;DHT22;40108;53.152;5.844;2023-12-28T12:09:12;11.00;87.30
54202;DHT22;40108;53.152;5.844;2023-12-28T12:11:38;10.90;87.20
54202;DHT22;40108;53.152;5.844;2023-12-28T12:14:13;11.00;87.30
54202;DHT22;40108;53.152;5.844;2023-12-28T12:16:39;11.00;87.30
54202;DHT22;40108;53.152;5.844;2023-12-28T12:19:05;11.00;87.40
54202;DHT22;40108;53.152;5.844;2023-12-28T12:21:35;10.90;87.50
54202;DHT22;40108;53.152;5.844;2023-12-28T12:24:01;10.90;87.50
54202;DHT22;40108;53.152;5.844;2023-12-28T12:26:28;10.90;87.50
54202;DHT22;40108;53.152;5.844;2023-12-28T12:28:55;10.90;87.50
54202;DHT22;40108;53.152;5.844;2023-12-28T12:31:21;10.90;87.60
54202;DHT22;40108;53.152;5.844;2023-12-28T12:33:50;10.90;87.80
54202;DHT22;40108;53.152;5.844;2023-12-28T12:36:16;10.90;87.60
54202;DHT22;40108;53.152;5.844;2023-12-28T12:38:42;10.90;87.70
54202;DHT22;40108;53.152;5.844;2023-12-28T12:41:10;11.00;87.60
54202;DHT22;40108;53.152;5.844;2023-12-28T12:43:37;10.90;87.60
54202;DHT22;40108;53.152;5.844;2023-12-28T12:46:04;10.90;87.70
54202;DHT22;40108;53.152;5.844;2023-12-28T12:48:30;10.90;87.60
54202;DHT22;40108;53.152;5.844;2023-12-28T12:50:55;10.90;87.60
54202;DHT22;40108;53.152;5.844;2023-12-28T12:53:22;10.90;87.50
54202;DHT22;40108;53.152;5.844;2023-12-28T12:55:47;10.90;87.60
54202;DHT22;40108;53.152;5.844;2023-12-28T12:58:15;10.90;87.60
54202;DHT22;40108;53.152;5.844;2023-12-28T13:00:42;10.90;87.50
54202;DHT22;40108;53.152;5.844;2023-12-28T13:03:10;10.90;87.40
54202;DHT22;40108;53.152;5.844;2023-12-28T13:05:36;10.90;87.20
54202;DHT22;40108;53.152;5.844;2023-12-28T13:08:04;10.90;87.30
54202;DHT22;40108;53.152;5.844;2023-12-28T13:10:30;10.90;87.30
54202;DHT22;40108;53.152;5.844;2023-12-28T13:12:56;10.90;87.50
54202;DHT22;40108;53.152;5.844;2023-12-28T13:15:22;10.90;87.50
54202;DHT22;40108;53.152;5.844;2023-12-28T13:17:48;10.80;87.50
54202;DHT22;40108;53.152;5.844;2023-12-28T13:20:14;10.80;87.50
54202;DHT22;40108;53.152;5.844;2023-12-28T13:22:40;10.90;87.70
54202;DHT22;40108;53.152;5.844;2023-12-28T13:25:06;10.90;87.60
54202;DHT22;40108;53.152;5.844;2023-12-28T13:27:31;10.80;87.50
54202;DHT22;40108;53.152;5.844;2023-12-28T13:29:58;10.80;87.40
54202;DHT22;40108;53.152;5.844;2023-12-28T13:32:26;10.80;87.40
54202;DHT22;40108;53.152;5.844;2023-12-28T13:34:51;10.80;87.50
54202;DHT22;40108;53.152;5.844;2023-12-28T13:37:18;10.70;87.60
54202;DHT22;40108;53.152;5.844;2023-12-28T13:39:44;10.70;87.60
54202;DHT22;40108;53.152;5.844;2023-12-28T13:42:12;10.80;87.70
54202;DHT22;40108;53.152;5.844;2023-12-28T13:44:38;10.80;87.70
54202;DHT22;40108;53.152;5.844;2023-12-28T13:47:04;10.70;87.60
54202;DHT22;40108;53.152;5.844;2023-12-28T13:49:31;10.80;87.70
54202;DHT22;40108;53.152;5.844;2023-12-28T13:51:57;10.80;87.40
54202;DHT22;40108;53.152;5.844;2023-12-28T13:54:24;10.70;87.30
54202;DHT22;40108;53.152;5.844;2023-12-28T13:56:49;10.80;87.40
54202;DHT22;40108;53.152;5.844;2023-12-28T13:59:18;10.70;87.40
54202;DHT22;40108;53.152;5.844;2023-12-28T14:01:44;10.70;87.30
54202;DHT22;40108;53.152;5.844;2023-12-28T14:04:10;10.70;87.30
54202;DHT22;40108;53.152;5.844;2023-12-28T14:06:36;10.70;87.50
54202;DHT22;40108;53.152;5.844;2023-12-28T14:09:02;10.70;88.00
54202;DHT22;40108;53.152;5.844;2023-12-28T14:11:28;10.70;88.60
54202;DHT22;40108;53.152;5.844;2023-12-28T14:13:53;10.50;89.10
54202;DHT22;40108;53.152;5.844;2023-12-28T14:16:19;10.40;89.40
54202;DHT22;40108;53.152;5.844;2023-12-28T14:18:45;10.40;89.40
54202;DHT22;40108;53.152;5.844;2023-12-28T14:21:12;10.40;89.60
54202;DHT22;40108;53.152;5.844;2023-12-28T14:23:39;10.30;89.60
54202;DHT22;40108;53.152;5.844;2023-12-28T14:26:12;10.30;89.70
54202;DHT22;40108;53.152;5.844;2023-12-28T14:28:42;10.20;89.70
54202;DHT22;40108;53.152;5.844;2023-12-28T14:31:10;10.20;89.70
54202;DHT22;40108;53.152;5.844;2023-12-28T14:33:36;10.20;89.70
54202;DHT22;40108;53.152;5.844;2023-12-28T14:36:06;10.20;89.60
54202;DHT22;40108;53.152;5.844;2023-12-28T14:38:35;10.20;89.60
54202;DHT22;40108;53.152;5.844;2023-12-28T14:41:01;10.20;89.60
54202;DHT22;40108;53.152;5.844;2023-12-28T14:43:27;10.20;89.50
54202;DHT22;40108;53.152;5.844;2023-12-28T14:45:53;10.10;89.40
54202;DHT22;40108;53.152;5.844;2023-12-28T14:48:18;10.10;89.40
54202;DHT22;40108;53.152;5.844;2023-12-28T14:50:44;10.20;89.00
54202;DHT22;40108;53.152;5.844;2023-12-28T14:53:10;10.20;88.90
54202;DHT22;40108;53.152;5.844;2023-12-28T14:55:36;10.20;88.70
54202;DHT22;40108;53.152;5.844;2023-12-28T14:58:01;10.30;88.60
54202;DHT22;40108;53.152;5.844;2023-12-28T15:00:27;10.20;88.40
54202;DHT22;40108;53.152;5.844;2023-12-28T15:02:53;10.30;88.20
54202;DHT22;40108;53.152;5.844;2023-12-28T15:05:19;10.20;88.20
54202;DHT22;40108;53.152;5.844;2023-12-28T15:07:45;10.20;88.20
54202;DHT22;40108;53.152;5.844;2023-12-28T15:10:14;10.20;88.10
54202;DHT22;40108;53.152;5.844;2023-12-28T15:12:40;10.20;88.20
54202;DHT22;40108;53.152;5.844;2023-12-28T15:15:06;10.20;88.00
54202;DHT22;40108;53.152;5.844;2023-12-28T15:17:33;10.20;88.10
54202;DHT22;40108;53.152;5.844;2023-12-28T15:19:59;10.20;88.20
54202;DHT22;40108;53.152;5.844;2023-12-28T15:22:26;10.20;88.30
54202;DHT22;40108;53.152;5.844;2023-12-28T15:24:55;10.20;88.30
54202;DHT22;40108;53.152;5.844;2023-12-28T15:27:22;10.20;88.40
54202;DHT22;40108;53.152;5.844;2023-12-28T15:29:48;10.20;88.50
54202;DHT22;40108;53.152;5.844;2023-12-28T15:32:16;10.20;88.50
54202;DHT22;40108;53.152;5.844;2023-12-28T15:34:42;10.20;88.50